Terminal Aerodrome Forecast
Issued by NWS

Home | Current Version | Previous Version | Text Only | Print | Product List | Glossary On
Versions: 1 2 3 4 5 6 7 8 9 10 11 12 13 14 15 16
110
FTUS43 KOAX 052100 AAA
TAFCDR
TAF AMD
KCDR 052100Z 0521/0618 35017G27KT P6SM -SN OVC030
     FM060100 31012KT P6SM BKN100=

USA.gov is the U.S. government's official web portal to all federal, state and local government web resources and services.